Terminal Aerodrome Forecast
Issued by NWS Pittsburgh, PA

Current Version | Previous Version | Graphics & Text | Print | Product List | Glossary On
Versions: 1 2 3 4 5 6 7 8 9 10 11 12 13 14 15 16 17 18 19 20 21 22 23 24 25 26 27 28 29 30
000
FTUS41 KPBZ 282200 AAB
TAFPIT
TAF AMD
KPIT 282214Z 2822/2924 22012G24KT P6SM VCSH BKN050
     FM290000 27012G24KT 4SM -SHRA BKN035
     FM290200 26010G20KT P6SM BKN035
     FM290600 27005KT P6SM SCT080
     FM291500 25009KT P6SM BKN050=

USA.gov is the U.S. government's official web portal to all federal, state and local government web resources and services.